Seattle, Washington
Traffic Map
Current Weather Conditions
Seattle, Washington
Broken Clouds
Broken Clouds
17°
Feels Like: 17°
Wind Chill: 17° Ceiling: 2500
Heat Index: 17° Visibility: 10mi
Dew Point: 11° Wind: 5mph
Humidity: 70% Direction: 60° (ENE)
Pressure: 30.21in Gusts: 0mph
Raw Report DataKBFI 250353Z 06004KT 10SM BKN025 BKN050 17/11 A3021 RMK AO2 SLP228 T01670111 PNO $
Traffic Incident Summary
Active as of:
Severity:
Category:
InformationThere was an issue retrieving the traffic information for this location. Please try a different location or try again shortly.
Advertisements
Track Severe Weather on mobile